sensor_id;sensor_type;location;lat;lon;timestamp;P1;durP1;ratioP1;P2;durP2;ratioP2
12088;SDS011;6107;49.078;8.578;2023-06-22T00:01:11;8.02;;;5.65;;
12088;SDS011;6107;49.078;8.578;2023-06-22T00:03:37;7.53;;;5.10;;
12088;SDS011;6107;49.078;8.578;2023-06-22T00:06:02;6.80;;;5.90;;
12088;SDS011;6107;49.078;8.578;2023-06-22T00:08:28;7.78;;;6.03;;
12088;SDS011;6107;49.078;8.578;2023-06-22T00:10:53;7.40;;;5.70;;
12088;SDS011;6107;49.078;8.578;2023-06-22T00:13:19;9.43;;;5.80;;
12088;SDS011;6107;49.078;8.578;2023-06-22T00:15:44;8.32;;;5.82;;
12088;SDS011;6107;49.078;8.578;2023-06-22T00:18:10;8.23;;;5.65;;
12088;SDS011;6107;49.078;8.578;2023-06-22T00:20:37;9.73;;;5.82;;
12088;SDS011;6107;49.078;8.578;2023-06-22T00:23:03;8.05;;;5.55;;
12088;SDS011;6107;49.078;8.578;2023-06-22T00:25:33;10.40;;;6.07;;
12088;SDS011;6107;49.078;8.578;2023-06-22T00:27:59;10.38;;;5.75;;
12088;SDS011;6107;49.078;8.578;2023-06-22T00:30:25;7.65;;;5.63;;
12088;SDS011;6107;49.078;8.578;2023-06-22T00:32:50;8.50;;;4.97;;
12088;SDS011;6107;49.078;8.578;2023-06-22T00:35:16;9.05;;;6.05;;
12088;SDS011;6107;49.078;8.578;2023-06-22T00:37:41;9.95;;;6.03;;
12088;SDS011;6107;49.078;8.578;2023-06-22T00:40:08;7.80;;;6.00;;
12088;SDS011;6107;49.078;8.578;2023-06-22T00:42:37;10.52;;;6.22;;
12088;SDS011;6107;49.078;8.578;2023-06-22T00:45:04;9.40;;;5.82;;
12088;SDS011;6107;49.078;8.578;2023-06-22T00:47:30;12.60;;;6.47;;
12088;SDS011;6107;49.078;8.578;2023-06-22T00:49:56;12.93;;;6.78;;
12088;SDS011;6107;49.078;8.578;2023-06-22T00:52:22;11.20;;;6.97;;
12088;SDS011;6107;49.078;8.578;2023-06-22T00:54:52;12.98;;;7.38;;
12088;SDS011;6107;49.078;8.578;2023-06-22T00:57:18;12.82;;;7.00;;
12088;SDS011;6107;49.078;8.578;2023-06-22T00:59:45;12.60;;;6.82;;
12088;SDS011;6107;49.078;8.578;2023-06-22T01:02:12;10.52;;;7.03;;
12088;SDS011;6107;49.078;8.578;2023-06-22T01:04:39;12.02;;;6.97;;
12088;SDS011;6107;49.078;8.578;2023-06-22T01:07:10;13.13;;;7.28;;
12088;SDS011;6107;49.078;8.578;2023-06-22T01:09:44;11.65;;;7.18;;
12088;SDS011;6107;49.078;8.578;2023-06-22T01:12:32;11.85;;;6.95;;
12088;SDS011;6107;49.078;8.578;2023-06-22T01:15:49;11.73;;;7.15;;
12088;SDS011;6107;49.078;8.578;2023-06-22T01:17:54;13.00;;;7.30;;
12088;SDS011;6107;49.078;8.578;2023-06-22T01:20:22;11.48;;;7.32;;
12088;SDS011;6107;49.078;8.578;2023-06-22T01:23:06;11.68;;;7.72;;
12088;SDS011;6107;49.078;8.578;2023-06-22T01:28:19;11.70;;;7.80;;
12088;SDS011;6107;49.078;8.578;2023-06-22T01:30:55;11.43;;;7.20;;
12088;SDS011;6107;49.078;8.578;2023-06-22T01:33:33;10.90;;;7.72;;
12088;SDS011;6107;49.078;8.578;2023-06-22T01:36:02;10.07;;;7.50;;
12088;SDS011;6107;49.078;8.578;2023-06-22T01:38:28;9.30;;;7.50;;
12088;SDS011;6107;49.078;8.578;2023-06-22T01:40:54;10.30;;;7.68;;
12088;SDS011;6107;49.078;8.578;2023-06-22T01:43:21;14.38;;;8.15;;
12088;SDS011;6107;49.078;8.578;2023-06-22T01:45:49;12.40;;;8.63;;
12088;SDS011;6107;49.078;8.578;2023-06-22T01:48:16;11.60;;;8.13;;
12088;SDS011;6107;49.078;8.578;2023-06-22T01:50:42;15.23;;;8.60;;
12088;SDS011;6107;49.078;8.578;2023-06-22T01:53:08;13.35;;;8.52;;
12088;SDS011;6107;49.078;8.578;2023-06-22T01:55:33;10.95;;;9.05;;
12088;SDS011;6107;49.078;8.578;2023-06-22T01:57:59;14.25;;;8.43;;
12088;SDS011;6107;49.078;8.578;2023-06-22T02:00:25;11.88;;;8.73;;
12088;SDS011;6107;49.078;8.578;2023-06-22T02:02:57;13.70;;;8.13;;
12088;SDS011;6107;49.078;8.578;2023-06-22T02:05:26;13.18;;;8.65;;
12088;SDS011;6107;49.078;8.578;2023-06-22T02:08:00;13.00;;;8.52;;
12088;SDS011;6107;49.078;8.578;2023-06-22T02:10:32;14.18;;;9.02;;
12088;SDS011;6107;49.078;8.578;2023-06-22T02:12:59;14.13;;;8.63;;
12088;SDS011;6107;49.078;8.578;2023-06-22T02:15:26;12.95;;;8.35;;
12088;SDS011;6107;49.078;8.578;2023-06-22T02:17:51;12.35;;;7.85;;
12088;SDS011;6107;49.078;8.578;2023-06-22T02:20:17;12.88;;;8.88;;
12088;SDS011;6107;49.078;8.578;2023-06-22T02:22:42;10.45;;;8.43;;
12088;SDS011;6107;49.078;8.578;2023-06-22T02:25:08;12.23;;;8.50;;
12088;SDS011;6107;49.078;8.578;2023-06-22T02:27:34;12.75;;;8.95;;
12088;SDS011;6107;49.078;8.578;2023-06-22T02:30:00;12.82;;;8.45;;
12088;SDS011;6107;49.078;8.578;2023-06-22T02:32:26;11.93;;;8.90;;
12088;SDS011;6107;49.078;8.578;2023-06-22T02:34:52;15.95;;;9.05;;
12088;SDS011;6107;49.078;8.578;2023-06-22T02:37:18;13.43;;;9.65;;
12088;SDS011;6107;49.078;8.578;2023-06-22T02:39:43;16.10;;;9.50;;
12088;SDS011;6107;49.078;8.578;2023-06-22T02:42:09;11.93;;;8.80;;
12088;SDS011;6107;49.078;8.578;2023-06-22T02:44:38;13.57;;;9.00;;
12088;SDS011;6107;49.078;8.578;2023-06-22T02:47:03;12.27;;;9.00;;
12088;SDS011;6107;49.078;8.578;2023-06-22T02:49:29;14.38;;;8.27;;
12088;SDS011;6107;49.078;8.578;2023-06-22T02:51:55;11.93;;;9.30;;
12088;SDS011;6107;49.078;8.578;2023-06-22T02:54:20;11.05;;;8.93;;
12088;SDS011;6107;49.078;8.578;2023-06-22T02:56:46;12.40;;;9.27;;
12088;SDS011;6107;49.078;8.578;2023-06-22T02:59:12;12.50;;;9.27;;
12088;SDS011;6107;49.078;8.578;2023-06-22T03:01:38;12.90;;;9.35;;
12088;SDS011;6107;49.078;8.578;2023-06-22T03:04:06;14.05;;;9.90;;
12088;SDS011;6107;49.078;8.578;2023-06-22T03:06:33;12.85;;;9.00;;
12088;SDS011;6107;49.078;8.578;2023-06-22T03:08:59;14.57;;;9.27;;
12088;SDS011;6107;49.078;8.578;2023-06-22T03:11:26;10.70;;;8.50;;
12088;SDS011;6107;49.078;8.578;2023-06-22T03:13:51;15.32;;;9.00;;
12088;SDS011;6107;49.078;8.578;2023-06-22T03:16:17;12.23;;;9.30;;
12088;SDS011;6107;49.078;8.578;2023-06-22T03:18:44;14.48;;;9.05;;
12088;SDS011;6107;49.078;8.578;2023-06-22T03:21:09;14.63;;;9.65;;
12088;SDS011;6107;49.078;8.578;2023-06-22T03:23:35;12.43;;;8.98;;
12088;SDS011;6107;49.078;8.578;2023-06-22T03:26:01;12.38;;;9.23;;
12088;SDS011;6107;49.078;8.578;2023-06-22T03:28:27;15.65;;;9.90;;
12088;SDS011;6107;49.078;8.578;2023-06-22T03:30:52;13.52;;;9.73;;
12088;SDS011;6107;49.078;8.578;2023-06-22T03:33:18;15.10;;;10.52;;
12088;SDS011;6107;49.078;8.578;2023-06-22T03:35:43;13.90;;;9.65;;
12088;SDS011;6107;49.078;8.578;2023-06-22T03:38:09;14.80;;;10.18;;
12088;SDS011;6107;49.078;8.578;2023-06-22T03:40:34;16.50;;;10.23;;
12088;SDS011;6107;49.078;8.578;2023-06-22T03:43:00;18.95;;;10.43;;
12088;SDS011;6107;49.078;8.578;2023-06-22T03:45:25;15.23;;;10.45;;
12088;SDS011;6107;49.078;8.578;2023-06-22T03:47:51;18.60;;;9.52;;
12088;SDS011;6107;49.078;8.578;2023-06-22T03:50:16;14.00;;;10.05;;
12088;SDS011;6107;49.078;8.578;2023-06-22T03:52:42;15.90;;;10.50;;
12088;SDS011;6107;49.078;8.578;2023-06-22T03:55:07;14.65;;;9.70;;
12088;SDS011;6107;49.078;8.578;2023-06-22T03:57:33;14.93;;;9.63;;
12088;SDS011;6107;49.078;8.578;2023-06-22T03:59:59;12.40;;;8.90;;
12088;SDS011;6107;49.078;8.578;2023-06-22T04:02:24;15.30;;;9.77;;
12088;SDS011;6107;49.078;8.578;2023-06-22T04:04:50;14.68;;;9.50;;
12088;SDS011;6107;49.078;8.578;2023-06-22T04:07:16;13.80;;;9.43;;
12088;SDS011;6107;49.078;8.578;2023-06-22T04:09:42;13.98;;;9.38;;
12088;SDS011;6107;49.078;8.578;2023-06-22T04:12:08;12.13;;;8.70;;
12088;SDS011;6107;49.078;8.578;2023-06-22T04:14:34;12.95;;;9.32;;
12088;SDS011;6107;49.078;8.578;2023-06-22T04:16:59;15.07;;;9.88;;
12088;SDS011;6107;49.078;8.578;2023-06-22T04:19:25;12.05;;;8.90;;
12088;SDS011;6107;49.078;8.578;2023-06-22T04:21:50;14.68;;;8.88;;
12088;SDS011;6107;49.078;8.578;2023-06-22T04:24:16;13.95;;;9.57;;
12088;SDS011;6107;49.078;8.578;2023-06-22T04:26:41;14.25;;;9.60;;
12088;SDS011;6107;49.078;8.578;2023-06-22T04:29:07;15.93;;;9.68;;
12088;SDS011;6107;49.078;8.578;2023-06-22T04:31:36;15.50;;;9.10;;
12088;SDS011;6107;49.078;8.578;2023-06-22T04:34:01;15.77;;;9.90;;
12088;SDS011;6107;49.078;8.578;2023-06-22T04:36:33;14.73;;;10.10;;
12088;SDS011;6107;49.078;8.578;2023-06-22T04:39:02;14.57;;;9.65;;
12088;SDS011;6107;49.078;8.578;2023-06-22T04:41:32;14.18;;;9.90;;
12088;SDS011;6107;49.078;8.578;2023-06-22T04:44:06;14.15;;;9.55;;
12088;SDS011;6107;49.078;8.578;2023-06-22T04:46:38;12.43;;;9.20;;
12088;SDS011;6107;49.078;8.578;2023-06-22T04:49:08;14.57;;;10.15;;
12088;SDS011;6107;49.078;8.578;2023-06-22T04:51:41;14.45;;;9.55;;
12088;SDS011;6107;49.078;8.578;2023-06-22T04:54:08;15.40;;;9.05;;
12088;SDS011;6107;49.078;8.578;2023-06-22T04:56:34;15.57;;;10.43;;
12088;SDS011;6107;49.078;8.578;2023-06-22T04:59:00;21.33;;;10.20;;
12088;SDS011;6107;49.078;8.578;2023-06-22T05:01:28;14.77;;;10.25;;
12088;SDS011;6107;49.078;8.578;2023-06-22T05:03:53;16.83;;;10.35;;
12088;SDS011;6107;49.078;8.578;2023-06-22T05:06:21;17.52;;;10.10;;
12088;SDS011;6107;49.078;8.578;2023-06-22T05:08:50;15.77;;;9.95;;
12088;SDS011;6107;49.078;8.578;2023-06-22T05:11:22;17.98;;;11.25;;
12088;SDS011;6107;49.078;8.578;2023-06-22T05:13:51;13.93;;;9.73;;
12088;SDS011;6107;49.078;8.578;2023-06-22T05:16:17;14.80;;;10.00;;
12088;SDS011;6107;49.078;8.578;2023-06-22T05:18:42;19.02;;;10.32;;
12088;SDS011;6107;49.078;8.578;2023-06-22T05:21:08;14.65;;;10.25;;
12088;SDS011;6107;49.078;8.578;2023-06-22T05:23:34;16.13;;;9.57;;
12088;SDS011;6107;49.078;8.578;2023-06-22T05:25:59;16.48;;;10.00;;
12088;SDS011;6107;49.078;8.578;2023-06-22T05:28:25;17.55;;;10.38;;
12088;SDS011;6107;49.078;8.578;2023-06-22T05:30:50;15.13;;;10.20;;
12088;SDS011;6107;49.078;8.578;2023-06-22T05:33:16;15.82;;;9.80;;
12088;SDS011;6107;49.078;8.578;2023-06-22T05:35:41;14.55;;;10.57;;
12088;SDS011;6107;49.078;8.578;2023-06-22T05:38:07;16.20;;;10.20;;
12088;SDS011;6107;49.078;8.578;2023-06-22T05:40:32;16.52;;;10.20;;
12088;SDS011;6107;49.078;8.578;2023-06-22T05:42:58;13.50;;;10.00;;
12088;SDS011;6107;49.078;8.578;2023-06-22T05:45:25;20.70;;;10.52;;
12088;SDS011;6107;49.078;8.578;2023-06-22T05:47:51;17.33;;;9.63;;
12088;SDS011;6107;49.078;8.578;2023-06-22T05:50:16;16.98;;;10.13;;
12088;SDS011;6107;49.078;8.578;2023-06-22T05:52:42;17.55;;;9.60;;
12088;SDS011;6107;49.078;8.578;2023-06-22T05:55:07;17.45;;;9.60;;
12088;SDS011;6107;49.078;8.578;2023-06-22T05:57:33;16.35;;;9.57;;
12088;SDS011;6107;49.078;8.578;2023-06-22T05:59:59;19.77;;;9.32;;
12088;SDS011;6107;49.078;8.578;2023-06-22T06:02:24;15.45;;;9.50;;
12088;SDS011;6107;49.078;8.578;2023-06-22T06:04:50;13.38;;;9.05;;
12088;SDS011;6107;49.078;8.578;2023-06-22T06:07:17;18.02;;;10.02;;
12088;SDS011;6107;49.078;8.578;2023-06-22T06:09:43;15.77;;;9.52;;
12088;SDS011;6107;49.078;8.578;2023-06-22T06:12:08;15.77;;;10.13;;
12088;SDS011;6107;49.078;8.578;2023-06-22T06:14:34;14.07;;;8.75;;
12088;SDS011;6107;49.078;8.578;2023-06-22T06:16:59;12.18;;;8.77;;
12088;SDS011;6107;49.078;8.578;2023-06-22T06:19:25;18.42;;;9.85;;
12088;SDS011;6107;49.078;8.578;2023-06-22T06:21:50;12.77;;;9.57;;
12088;SDS011;6107;49.078;8.578;2023-06-22T06:24:16;14.68;;;10.15;;
12088;SDS011;6107;49.078;8.578;2023-06-22T06:26:41;16.55;;;9.43;;
12088;SDS011;6107;49.078;8.578;2023-06-22T06:29:07;16.42;;;10.23;;
12088;SDS011;6107;49.078;8.578;2023-06-22T06:31:32;15.15;;;9.35;;
12088;SDS011;6107;49.078;8.578;2023-06-22T06:33:58;15.63;;;10.65;;
12088;SDS011;6107;49.078;8.578;2023-06-22T06:36:23;17.20;;;10.07;;
12088;SDS011;6107;49.078;8.578;2023-06-22T06:38:49;17.00;;;9.40;;
12088;SDS011;6107;49.078;8.578;2023-06-22T06:41:15;16.02;;;9.63;;
12088;SDS011;6107;49.078;8.578;2023-06-22T06:43:41;15.38;;;9.73;;
12088;SDS011;6107;49.078;8.578;2023-06-22T06:46:09;14.38;;;9.13;;
12088;SDS011;6107;49.078;8.578;2023-06-22T06:48:35;13.80;;;9.60;;
12088;SDS011;6107;49.078;8.578;2023-06-22T06:51:00;18.50;;;9.75;;
12088;SDS011;6107;49.078;8.578;2023-06-22T06:53:26;11.48;;;8.63;;
12088;SDS011;6107;49.078;8.578;2023-06-22T06:55:53;13.18;;;8.93;;
12088;SDS011;6107;49.078;8.578;2023-06-22T06:58:18;13.93;;;9.57;;
12088;SDS011;6107;49.078;8.578;2023-06-22T07:00:44;13.65;;;9.70;;
12088;SDS011;6107;49.078;8.578;2023-06-22T07:03:09;19.38;;;10.02;;
12088;SDS011;6107;49.078;8.578;2023-06-22T07:05:35;10.18;;;7.53;;
12088;SDS011;6107;49.078;8.578;2023-06-22T07:08:01;9.57;;;7.85;;
12088;SDS011;6107;49.078;8.578;2023-06-22T07:10:27;15.18;;;8.68;;
12088;SDS011;6107;49.078;8.578;2023-06-22T07:12:53;9.88;;;7.85;;
12088;SDS011;6107;49.078;8.578;2023-06-22T07:43:14;13.07;;;8.27;;
12088;SDS011;6107;49.078;8.578;2023-06-22T07:45:39;10.27;;;7.95;;
12088;SDS011;6107;49.078;8.578;2023-06-22T07:48:07;12.13;;;8.02;;
12088;SDS011;6107;49.078;8.578;2023-06-22T07:50:32;10.60;;;7.50;;
12088;SDS011;6107;49.078;8.578;2023-06-22T07:52:58;9.38;;;7.30;;
12088;SDS011;6107;49.078;8.578;2023-06-22T07:55:23;10.63;;;7.43;;
12088;SDS011;6107;49.078;8.578;2023-06-22T07:57:49;9.40;;;6.95;;
12088;SDS011;6107;49.078;8.578;2023-06-22T08:00:16;9.18;;;7.03;;
12088;SDS011;6107;49.078;8.578;2023-06-22T08:02:44;9.70;;;6.93;;
12088;SDS011;6107;49.078;8.578;2023-06-22T08:05:11;12.43;;;6.65;;
12088;SDS011;6107;49.078;8.578;2023-06-22T08:07:37;10.43;;;7.10;;
12088;SDS011;6107;49.078;8.578;2023-06-22T08:10:03;9.70;;;6.63;;
12088;SDS011;6107;49.078;8.578;2023-06-22T08:12:35;12.18;;;7.70;;
12088;SDS011;6107;49.078;8.578;2023-06-22T08:15:00;9.35;;;6.82;;
12088;SDS011;6107;49.078;8.578;2023-06-22T08:17:26;12.25;;;7.38;;
12088;SDS011;6107;49.078;8.578;2023-06-22T08:19:52;8.20;;;6.32;;
12088;SDS011;6107;49.078;8.578;2023-06-22T08:22:17;9.43;;;7.00;;
12088;SDS011;6107;49.078;8.578;2023-06-22T08:24:43;9.20;;;6.88;;
12088;SDS011;6107;49.078;8.578;2023-06-22T08:27:09;10.07;;;6.45;;
12088;SDS011;6107;49.078;8.578;2023-06-22T08:29:39;8.82;;;6.80;;
12088;SDS011;6107;49.078;8.578;2023-06-22T08:32:07;9.57;;;6.30;;
12088;SDS011;6107;49.078;8.578;2023-06-22T08:34:34;9.18;;;6.20;;
12088;SDS011;6107;49.078;8.578;2023-06-22T08:36:59;8.63;;;6.03;;
12088;SDS011;6107;49.078;8.578;2023-06-22T08:39:25;9.80;;;5.60;;
12088;SDS011;6107;49.078;8.578;2023-06-22T08:41:51;10.93;;;5.55;;
12088;SDS011;6107;49.078;8.578;2023-06-22T08:44:18;9.52;;;6.00;;
12088;SDS011;6107;49.078;8.578;2023-06-22T08:46:44;9.10;;;6.10;;
12088;SDS011;6107;49.078;8.578;2023-06-22T08:49:10;9.88;;;6.30;;
12088;SDS011;6107;49.078;8.578;2023-06-22T08:51:35;21.23;;;6.43;;
12088;SDS011;6107;49.078;8.578;2023-06-22T08:54:01;9.13;;;6.10;;
12088;SDS011;6107;49.078;8.578;2023-06-22T08:56:27;11.13;;;5.57;;
12088;SDS011;6107;49.078;8.578;2023-06-22T08:58:52;8.75;;;5.80;;
12088;SDS011;6107;49.078;8.578;2023-06-22T09:01:18;7.90;;;5.72;;
12088;SDS011;6107;49.078;8.578;2023-06-22T09:03:44;9.43;;;6.13;;
12088;SDS011;6107;49.078;8.578;2023-06-22T09:06:19;7.70;;;5.53;;
12088;SDS011;6107;49.078;8.578;2023-06-22T09:08:45;8.40;;;5.72;;
12088;SDS011;6107;49.078;8.578;2023-06-22T09:11:11;10.02;;;6.03;;
12088;SDS011;6107;49.078;8.578;2023-06-22T09:13:36;9.68;;;5.82;;
12088;SDS011;6107;49.078;8.578;2023-06-22T09:16:02;10.77;;;6.22;;
12088;SDS011;6107;49.078;8.578;2023-06-22T09:18:28;8.80;;;6.18;;
12088;SDS011;6107;49.078;8.578;2023-06-22T09:20:53;12.73;;;6.43;;
12088;SDS011;6107;49.078;8.578;2023-06-22T09:23:19;13.70;;;6.50;;
12088;SDS011;6107;49.078;8.578;2023-06-22T09:25:44;10.05;;;5.97;;
12088;SDS011;6107;49.078;8.578;2023-06-22T09:28:12;11.23;;;6.38;;
12088;SDS011;6107;49.078;8.578;2023-06-22T09:30:37;12.85;;;6.28;;
12088;SDS011;6107;49.078;8.578;2023-06-22T09:33:03;10.95;;;6.60;;
12088;SDS011;6107;49.078;8.578;2023-06-22T09:35:28;9.00;;;6.00;;
12088;SDS011;6107;49.078;8.578;2023-06-22T09:37:54;7.95;;;6.07;;
12088;SDS011;6107;49.078;8.578;2023-06-22T09:40:19;10.07;;;6.25;;
12088;SDS011;6107;49.078;8.578;2023-06-22T09:42:45;12.68;;;6.78;;
12088;SDS011;6107;49.078;8.578;2023-06-22T09:45:10;9.90;;;6.07;;
12088;SDS011;6107;49.078;8.578;2023-06-22T09:47:36;9.25;;;6.85;;
12088;SDS011;6107;49.078;8.578;2023-06-22T09:50:02;12.18;;;6.75;;
12088;SDS011;6107;49.078;8.578;2023-06-22T09:52:28;10.90;;;6.55;;
12088;SDS011;6107;49.078;8.578;2023-06-22T09:54:54;10.75;;;6.20;;
12088;SDS011;6107;49.078;8.578;2023-06-22T09:57:19;9.50;;;6.75;;
12088;SDS011;6107;49.078;8.578;2023-06-22T09:59:45;9.23;;;6.40;;
12088;SDS011;6107;49.078;8.578;2023-06-22T10:02:10;10.13;;;6.43;;
12088;SDS011;6107;49.078;8.578;2023-06-22T10:04:36;9.70;;;6.20;;
12088;SDS011;6107;49.078;8.578;2023-06-22T10:07:02;9.98;;;6.32;;
12088;SDS011;6107;49.078;8.578;2023-06-22T10:09:27;10.45;;;6.35;;
12088;SDS011;6107;49.078;8.578;2023-06-22T10:11:53;9.57;;;6.32;;
12088;SDS011;6107;49.078;8.578;2023-06-22T10:14:18;9.77;;;6.18;;
12088;SDS011;6107;49.078;8.578;2023-06-22T10:16:44;10.48;;;6.05;;
12088;SDS011;6107;49.078;8.578;2023-06-22T10:19:09;13.77;;;6.25;;
12088;SDS011;6107;49.078;8.578;2023-06-22T10:21:35;12.43;;;6.78;;
12088;SDS011;6107;49.078;8.578;2023-06-22T10:24:01;10.32;;;6.85;;
12088;SDS011;6107;49.078;8.578;2023-06-22T10:26:31;12.05;;;6.72;;
12088;SDS011;6107;49.078;8.578;2023-06-22T10:29:00;11.20;;;6.88;;
12088;SDS011;6107;49.078;8.578;2023-06-22T10:31:29;9.45;;;6.03;;
12088;SDS011;6107;49.078;8.578;2023-06-22T10:33:55;10.13;;;6.53;;
12088;SDS011;6107;49.078;8.578;2023-06-22T10:36:21;8.63;;;6.43;;
12088;SDS011;6107;49.078;8.578;2023-06-22T10:38:47;9.55;;;6.28;;
12088;SDS011;6107;49.078;8.578;2023-06-22T10:41:13;10.57;;;6.38;;
12088;SDS011;6107;49.078;8.578;2023-06-22T10:43:39;10.73;;;6.32;;
12088;SDS011;6107;49.078;8.578;2023-06-22T10:46:06;12.60;;;6.75;;
12088;SDS011;6107;49.078;8.578;2023-06-22T10:48:31;10.50;;;6.40;;
12088;SDS011;6107;49.078;8.578;2023-06-22T10:50:57;11.95;;;6.07;;
12088;SDS011;6107;49.078;8.578;2023-06-22T10:53:23;8.18;;;6.43;;
12088;SDS011;6107;49.078;8.578;2023-06-22T10:55:48;11.18;;;6.47;;
12088;SDS011;6107;49.078;8.578;2023-06-22T10:58:14;10.75;;;6.53;;
12088;SDS011;6107;49.078;8.578;2023-06-22T11:00:40;9.85;;;6.40;;
12088;SDS011;6107;49.078;8.578;2023-06-22T11:03:05;10.68;;;6.72;;
12088;SDS011;6107;49.078;8.578;2023-06-22T11:05:31;7.90;;;6.00;;
12088;SDS011;6107;49.078;8.578;2023-06-22T11:07:57;11.00;;;6.68;;
12088;SDS011;6107;49.078;8.578;2023-06-22T11:10:22;8.88;;;6.57;;
12088;SDS011;6107;49.078;8.578;2023-06-22T11:12:48;11.73;;;6.95;;
12088;SDS011;6107;49.078;8.578;2023-06-22T11:15:13;10.30;;;6.60;;
12088;SDS011;6107;49.078;8.578;2023-06-22T11:17:39;10.05;;;6.68;;
12088;SDS011;6107;49.078;8.578;2023-06-22T11:20:05;10.55;;;6.90;;
12088;SDS011;6107;49.078;8.578;2023-06-22T11:22:35;11.65;;;6.38;;
12088;SDS011;6107;49.078;8.578;2023-06-22T11:25:02;12.02;;;6.43;;
12088;SDS011;6107;49.078;8.578;2023-06-22T11:27:28;8.45;;;6.85;;
12088;SDS011;6107;49.078;8.578;2023-06-22T11:29:53;11.20;;;6.90;;
12088;SDS011;6107;49.078;8.578;2023-06-22T11:32:19;10.80;;;6.25;;
12088;SDS011;6107;49.078;8.578;2023-06-22T11:34:44;13.20;;;6.60;;
12088;SDS011;6107;49.078;8.578;2023-06-22T11:37:10;13.48;;;7.07;;
12088;SDS011;6107;49.078;8.578;2023-06-22T11:39:35;8.27;;;6.40;;
12088;SDS011;6107;49.078;8.578;2023-06-22T11:42:01;8.88;;;6.60;;
12088;SDS011;6107;49.078;8.578;2023-06-22T11:44:26;15.93;;;6.57;;
12088;SDS011;6107;49.078;8.578;2023-06-22T11:46:52;10.77;;;7.10;;
12088;SDS011;6107;49.078;8.578;2023-06-22T11:49:18;12.65;;;7.05;;
12088;SDS011;6107;49.078;8.578;2023-06-22T11:51:43;16.90;;;8.00;;
12088;SDS011;6107;49.078;8.578;2023-06-22T11:54:09;15.02;;;7.93;;
12088;SDS011;6107;49.078;8.578;2023-06-22T11:56:34;17.38;;;7.88;;
12088;SDS011;6107;49.078;8.578;2023-06-22T11:58:59;10.75;;;6.85;;
12088;SDS011;6107;49.078;8.578;2023-06-22T12:01:25;10.93;;;7.00;;
12088;SDS011;6107;49.078;8.578;2023-06-22T12:03:51;12.07;;;6.72;;
12088;SDS011;6107;49.078;8.578;2023-06-22T12:06:17;13.07;;;7.00;;
12088;SDS011;6107;49.078;8.578;2023-06-22T12:08:42;9.70;;;6.68;;
12088;SDS011;6107;49.078;8.578;2023-06-22T12:11:08;13.02;;;7.32;;
12088;SDS011;6107;49.078;8.578;2023-06-22T12:13:33;10.55;;;6.70;;
12088;SDS011;6107;49.078;8.578;2023-06-22T12:15:59;9.75;;;6.45;;
12088;SDS011;6107;49.078;8.578;2023-06-22T12:18:24;11.63;;;7.20;;
12088;SDS011;6107;49.078;8.578;2023-06-22T12:20:50;10.80;;;6.28;;
12088;SDS011;6107;49.078;8.578;2023-06-22T12:23:15;10.35;;;6.82;;
12088;SDS011;6107;49.078;8.578;2023-06-22T12:25:41;9.75;;;7.07;;
12088;SDS011;6107;49.078;8.578;2023-06-22T12:28:06;10.48;;;7.05;;
12088;SDS011;6107;49.078;8.578;2023-06-22T12:30:32;9.18;;;6.47;;
12088;SDS011;6107;49.078;8.578;2023-06-22T12:32:58;10.65;;;6.55;;
12088;SDS011;6107;49.078;8.578;2023-06-22T12:35:24;9.00;;;6.13;;
12088;SDS011;6107;49.078;8.578;2023-06-22T12:37:49;10.88;;;6.63;;
12088;SDS011;6107;49.078;8.578;2023-06-22T12:40:15;10.90;;;7.05;;
12088;SDS011;6107;49.078;8.578;2023-06-22T12:42:40;10.02;;;6.45;;
12088;SDS011;6107;49.078;8.578;2023-06-22T12:45:07;11.93;;;6.40;;
12088;SDS011;6107;49.078;8.578;2023-06-22T12:47:33;13.02;;;7.07;;
12088;SDS011;6107;49.078;8.578;2023-06-22T12:49:58;9.93;;;6.38;;
12088;SDS011;6107;49.078;8.578;2023-06-22T12:52:24;11.90;;;6.40;;
12088;SDS011;6107;49.078;8.578;2023-06-22T12:54:50;12.00;;;7.38;;
12088;SDS011;6107;49.078;8.578;2023-06-22T12:57:15;10.75;;;7.05;;
12088;SDS011;6107;49.078;8.578;2023-06-22T12:59:42;13.02;;;7.20;;
12088;SDS011;6107;49.078;8.578;2023-06-22T13:02:08;12.70;;;6.75;;
12088;SDS011;6107;49.078;8.578;2023-06-22T13:04:33;8.88;;;6.47;;
12088;SDS011;6107;49.078;8.578;2023-06-22T13:06:59;10.98;;;6.88;;
12088;SDS011;6107;49.078;8.578;2023-06-22T13:09:25;8.55;;;6.85;;
12088;SDS011;6107;49.078;8.578;2023-06-22T13:11:50;12.07;;;6.80;;
12088;SDS011;6107;49.078;8.578;2023-06-22T13:14:17;13.32;;;7.13;;
12088;SDS011;6107;49.078;8.578;2023-06-22T13:16:43;11.15;;;7.13;;
12088;SDS011;6107;49.078;8.578;2023-06-22T13:19:08;12.85;;;7.65;;
12088;SDS011;6107;49.078;8.578;2023-06-22T13:21:34;10.70;;;6.93;;
12088;SDS011;6107;49.078;8.578;2023-06-22T13:23:59;15.68;;;7.72;;
12088;SDS011;6107;49.078;8.578;2023-06-22T13:26:26;12.80;;;7.10;;
12088;SDS011;6107;49.078;8.578;2023-06-22T13:28:53;15.30;;;7.40;;
12088;SDS011;6107;49.078;8.578;2023-06-22T13:31:19;10.45;;;6.90;;
12088;SDS011;6107;49.078;8.578;2023-06-22T13:33:44;11.38;;;7.13;;
12088;SDS011;6107;49.078;8.578;2023-06-22T13:36:12;12.15;;;7.20;;
12088;SDS011;6107;49.078;8.578;2023-06-22T13:38:38;11.63;;;7.35;;
12088;SDS011;6107;49.078;8.578;2023-06-22T13:41:04;16.33;;;7.78;;
12088;SDS011;6107;49.078;8.578;2023-06-22T13:43:30;11.88;;;7.45;;
12088;SDS011;6107;49.078;8.578;2023-06-22T13:45:56;12.80;;;7.05;;
12088;SDS011;6107;49.078;8.578;2023-06-22T13:48:21;15.73;;;7.20;;
12088;SDS011;6107;49.078;8.578;2023-06-22T13:50:48;13.02;;;7.47;;
12088;SDS011;6107;49.078;8.578;2023-06-22T13:53:14;10.98;;;6.85;;
12088;SDS011;6107;49.078;8.578;2023-06-22T13:55:39;11.18;;;7.38;;
12088;SDS011;6107;49.078;8.578;2023-06-22T13:58:06;15.85;;;7.60;;
12088;SDS011;6107;49.078;8.578;2023-06-22T14:00:32;12.75;;;7.30;;
12088;SDS011;6107;49.078;8.578;2023-06-22T14:02:57;11.43;;;7.60;;
12088;SDS011;6107;49.078;8.578;2023-06-22T14:05:23;11.35;;;7.22;;
12088;SDS011;6107;49.078;8.578;2023-06-22T14:07:48;11.35;;;7.38;;
12088;SDS011;6107;49.078;8.578;2023-06-22T14:10:14;11.25;;;7.50;;
12088;SDS011;6107;49.078;8.578;2023-06-22T14:12:39;10.55;;;6.63;;
12088;SDS011;6107;49.078;8.578;2023-06-22T14:15:05;11.32;;;7.25;;
12088;SDS011;6107;49.078;8.578;2023-06-22T14:17:31;12.25;;;7.53;;
12088;SDS011;6107;49.078;8.578;2023-06-22T14:19:56;14.20;;;7.57;;
12088;SDS011;6107;49.078;8.578;2023-06-22T14:22:22;11.75;;;7.32;;
12088;SDS011;6107;49.078;8.578;2023-06-22T14:24:47;11.20;;;7.60;;
12088;SDS011;6107;49.078;8.578;2023-06-22T14:27:14;10.48;;;7.65;;
12088;SDS011;6107;49.078;8.578;2023-06-22T14:29:40;15.90;;;7.30;;
12088;SDS011;6107;49.078;8.578;2023-06-22T14:32:06;11.27;;;8.13;;
12088;SDS011;6107;49.078;8.578;2023-06-22T14:34:32;10.27;;;7.15;;
12088;SDS011;6107;49.078;8.578;2023-06-22T14:37:01;13.75;;;8.05;;
12088;SDS011;6107;49.078;8.578;2023-06-22T14:39:27;16.08;;;7.63;;
12088;SDS011;6107;49.078;8.578;2023-06-22T14:41:52;13.38;;;7.47;;
12088;SDS011;6107;49.078;8.578;2023-06-22T14:44:18;12.35;;;7.43;;
12088;SDS011;6107;49.078;8.578;2023-06-22T14:46:43;13.75;;;7.22;;
12088;SDS011;6107;49.078;8.578;2023-06-22T14:49:09;11.73;;;7.13;;
12088;SDS011;6107;49.078;8.578;2023-06-22T14:51:34;13.70;;;7.25;;
12088;SDS011;6107;49.078;8.578;2023-06-22T14:54:00;11.38;;;6.75;;
12088;SDS011;6107;49.078;8.578;2023-06-22T14:56:25;12.23;;;6.80;;
12088;SDS011;6107;49.078;8.578;2023-06-22T14:58:51;10.82;;;6.88;;
12088;SDS011;6107;49.078;8.578;2023-06-22T15:01:17;12.15;;;6.82;;
12088;SDS011;6107;49.078;8.578;2023-06-22T15:03:43;11.55;;;6.70;;
12088;SDS011;6107;49.078;8.578;2023-06-22T15:06:09;16.08;;;7.35;;
12088;SDS011;6107;49.078;8.578;2023-06-22T15:08:37;10.48;;;7.20;;
12088;SDS011;6107;49.078;8.578;2023-06-22T15:11:03;10.88;;;6.72;;
12088;SDS011;6107;49.078;8.578;2023-06-22T15:13:30;13.95;;;7.88;;